createdAt,value
2023-04-26T00:01:03.994Z,100.00
2023-04-26T00:03:07.814Z,100.00
2023-04-26T00:05:10.935Z,100.00
2023-04-26T00:07:15.838Z,100.00
2023-04-26T00:09:19.542Z,100.00
2023-04-26T00:11:23.763Z,100.00
2023-04-26T00:13:26.520Z,100.00
2023-04-26T00:15:29.203Z,100.00
2023-04-26T00:17:31.902Z,100.00
2023-04-26T00:19:34.587Z,100.00
2023-04-26T00:21:37.979Z,100.00
2023-04-26T00:23:40.720Z,100.00
2023-04-26T00:25:43.481Z,100.00
2023-04-26T00:27:47.602Z,100.00
2023-04-26T00:29:50.231Z,100.00
2023-04-26T00:31:52.956Z,100.00
2023-04-26T00:33:55.709Z,100.00
2023-04-26T00:35:58.353Z,100.00
2023-04-26T00:38:01.045Z,100.00
2023-04-26T00:40:06.805Z,100.00
2023-04-26T00:42:09.470Z,100.00
2023-04-26T00:44:13.470Z,100.00
2023-04-26T00:46:16.246Z,100.00
2023-04-26T00:48:19.152Z,100.00
2023-04-26T00:50:21.998Z,100.00
2023-04-26T00:52:25.936Z,100.00
2023-04-26T00:54:29.666Z,100.00
2023-04-26T00:56:32.609Z,100.00
2023-04-26T00:58:35.210Z,100.00
2023-04-26T01:00:39.446Z,100.00
2023-04-26T01:02:42.557Z,100.00
2023-04-26T01:04:45.706Z,100.00
2023-04-26T01:06:48.816Z,100.00
2023-04-26T01:08:53.327Z,100.00
2023-04-26T01:10:59.557Z,100.00
2023-04-26T01:13:03.937Z,100.00
2023-04-26T01:15:07.638Z,100.00
2023-04-26T01:17:11.843Z,100.00
2023-04-26T01:19:15.153Z,100.00
2023-04-26T01:21:21.781Z,100.00
2023-04-26T01:23:26.086Z,100.00
2023-04-26T01:25:29.358Z,100.00
2023-04-26T01:27:32.094Z,100.00
2023-04-26T01:29:35.199Z,100.00
2023-04-26T01:31:37.984Z,100.00
2023-04-26T01:33:40.777Z,99.72
2023-04-26T01:35:43.549Z,99.67
2023-04-26T01:37:46.273Z,100.00
2023-04-26T01:39:50.353Z,99.82
2023-04-26T01:41:53.113Z,100.00
2023-04-26T01:43:55.953Z,100.00
2023-04-26T01:45:58.719Z,99.84
2023-04-26T01:48:01.416Z,100.00
2023-04-26T01:50:04.408Z,100.00
2023-04-26T01:52:07.101Z,100.00
2023-04-26T01:54:09.814Z,100.00
2023-04-26T01:56:13.819Z,100.00
2023-04-26T01:58:16.774Z,100.00
2023-04-26T02:00:20.412Z,100.00
2023-04-26T02:02:23.329Z,100.00
2023-04-26T02:04:27.189Z,100.00
2023-04-26T02:06:29.985Z,100.00
2023-04-26T02:08:32.845Z,100.00
2023-04-26T02:10:35.751Z,100.00
2023-04-26T02:12:40.372Z,100.00
2023-04-26T02:14:43.147Z,100.00
2023-04-26T02:16:45.855Z,100.00
2023-04-26T02:18:49.854Z,100.00
2023-04-26T02:20:52.830Z,100.00
2023-04-26T02:22:55.598Z,100.00
2023-04-26T02:24:58.533Z,100.00
2023-04-26T02:27:03.852Z,100.00
2023-04-26T02:29:08.192Z,100.00
2023-04-26T02:31:11.141Z,100.00
2023-04-26T02:33:13.856Z,100.00
2023-04-26T02:35:16.851Z,100.00
2023-04-26T02:37:19.744Z,100.00
2023-04-26T02:39:22.528Z,100.00
2023-04-26T02:41:25.253Z,100.00
2023-04-26T02:43:28.213Z,100.00
2023-04-26T02:45:32.375Z,100.00
2023-04-26T02:47:36.764Z,100.00
2023-04-26T02:49:39.546Z,100.00
2023-04-26T02:51:42.490Z,100.00
2023-04-26T02:53:45.849Z,100.00
2023-04-26T02:55:48.579Z,100.00
2023-04-26T02:57:51.373Z,100.00
2023-04-26T02:59:54.533Z,100.00
2023-04-26T03:01:58.609Z,100.00
2023-04-26T03:04:01.487Z,100.00
2023-04-26T03:06:04.431Z,100.00
2023-04-26T03:08:07.193Z,100.00
2023-04-26T03:10:10.697Z,100.00
2023-04-26T03:12:13.422Z,100.00
2023-04-26T03:14:16.130Z,100.00
2023-04-26T03:16:20.356Z,100.00
2023-04-26T03:18:24.389Z,100.00
2023-04-26T03:20:27.257Z,100.00
2023-04-26T03:22:30.072Z,100.00
2023-04-26T03:24:32.839Z,100.00
2023-04-26T03:26:35.553Z,100.00
2023-04-26T03:28:38.324Z,100.00
2023-04-26T03:30:41.049Z,100.00
2023-04-26T03:32:43.804Z,100.00
2023-04-26T03:34:48.714Z,100.00
2023-04-26T03:36:51.538Z,100.00
2023-04-26T03:38:54.372Z,100.00
2023-04-26T03:40:57.140Z,100.00
2023-04-26T03:42:59.868Z,100.00
2023-04-26T03:45:03.894Z,100.00
2023-04-26T03:47:06.664Z,100.00
2023-04-26T03:49:09.401Z,100.00
2023-04-26T03:51:13.461Z,100.00
2023-04-26T03:53:16.140Z,100.00
2023-04-26T03:55:19.034Z,100.00
2023-04-26T03:57:21.912Z,100.00
2023-04-26T03:59:24.606Z,100.00
2023-04-26T04:01:27.735Z,100.00
2023-04-26T04:03:31.061Z,100.00
2023-04-26T04:05:34.204Z,100.00
2023-04-26T04:07:38.331Z,100.00
2023-04-26T04:09:41.133Z,100.00
2023-04-26T04:11:45.679Z,100.00
2023-04-26T04:13:49.069Z,100.00
2023-04-26T04:15:52.388Z,100.00
2023-04-26T04:17:55.292Z,100.00
2023-04-26T04:19:58.199Z,100.00
2023-04-26T04:22:00.894Z,100.00
2023-04-26T04:24:05.615Z,100.00
2023-04-26T04:26:08.909Z,100.00
2023-04-26T04:28:12.026Z,100.00
2023-04-26T04:30:14.995Z,100.00
2023-04-26T04:32:17.696Z,100.00
2023-04-26T04:34:20.459Z,100.00
2023-04-26T04:36:23.223Z,100.00
2023-04-26T04:38:25.999Z,100.00
2023-04-26T04:40:30.412Z,100.00
2023-04-26T04:42:38.473Z,100.00
2023-04-26T04:44:42.127Z,100.00
2023-04-26T04:46:45.480Z,100.00
2023-04-26T04:48:48.596Z,100.00
2023-04-26T04:50:51.601Z,100.00
2023-04-26T04:52:54.277Z,100.00
2023-04-26T04:54:56.987Z,100.00
2023-04-26T04:57:01.164Z,100.00
2023-04-26T04:59:04.266Z,100.00
2023-04-26T05:01:07.163Z,100.00
2023-04-26T05:03:10.712Z,100.00
2023-04-26T05:05:13.808Z,100.00
2023-04-26T05:07:18.375Z,100.00
2023-04-26T05:09:21.520Z,100.00
2023-04-26T05:11:24.243Z,100.00
2023-04-26T05:13:28.291Z,100.00
2023-04-26T05:15:31.199Z,100.00
2023-04-26T05:17:34.042Z,100.00
2023-04-26T05:19:37.009Z,100.00
2023-04-26T05:21:39.812Z,100.00
2023-04-26T05:23:42.595Z,100.00
2023-04-26T05:25:45.502Z,100.00
2023-04-26T05:27:48.219Z,100.00
2023-04-26T05:29:52.254Z,100.00
2023-04-26T05:31:55.014Z,100.00
2023-04-26T05:33:57.797Z,100.00
2023-04-26T05:36:01.559Z,100.00
2023-04-26T05:38:04.895Z,100.00
2023-04-26T05:40:10.098Z,100.00
2023-04-26T05:42:12.747Z,100.00
2023-04-26T05:44:15.689Z,100.00
2023-04-26T05:46:19.811Z,100.00
2023-04-26T05:48:23.199Z,100.00
2023-04-26T05:50:25.923Z,100.00
2023-04-26T05:52:28.578Z,100.00
2023-04-26T05:54:31.317Z,100.00
2023-04-26T05:56:33.949Z,100.00
2023-04-26T05:58:36.973Z,100.00
2023-04-26T06:00:40.083Z,100.00
2023-04-26T06:02:44.292Z,100.00
2023-04-26T06:04:47.441Z,100.00
2023-04-26T06:06:50.249Z,100.00
2023-04-26T06:08:52.979Z,100.00
2023-04-26T06:10:55.681Z,100.00
2023-04-26T06:12:58.461Z,99.46
2023-04-26T06:15:01.133Z,98.92
2023-04-26T06:17:04.308Z,98.23
2023-04-26T06:19:08.761Z,100.00
2023-04-26T06:21:11.569Z,100.00
2023-04-26T06:23:14.322Z,97.56
2023-04-26T06:25:17.092Z,99.65
2023-04-26T06:27:19.770Z,95.96
2023-04-26T06:29:22.789Z,96.77
2023-04-26T06:31:25.565Z,100.00
2023-04-26T06:33:28.301Z,98.43
2023-04-26T06:35:32.436Z,98.28
2023-04-26T06:37:36.220Z,94.97
2023-04-26T06:39:39.282Z,90.78
2023-04-26T06:41:42.049Z,90.28
2023-04-26T06:43:44.698Z,89.46
2023-04-26T06:45:47.386Z,84.27
2023-04-26T06:47:52.578Z,82.41
2023-04-26T06:49:55.358Z,82.42
2023-04-26T06:51:59.442Z,81.33
2023-04-26T06:54:02.221Z,78.81
2023-04-26T06:56:05.306Z,79.45
2023-04-26T06:58:08.200Z,81.49
2023-04-26T07:00:12.872Z,75.60
2023-04-26T07:02:15.972Z,71.27
2023-04-26T07:04:20.785Z,71.59
2023-04-26T07:06:23.653Z,70.23
2023-04-26T07:08:27.775Z,67.41
2023-04-26T07:10:30.486Z,64.14
2023-04-26T07:12:33.138Z,66.06
2023-04-26T07:14:40.550Z,64.97
2023-04-26T07:16:46.254Z,59.88
2023-04-26T07:18:49.314Z,58.19
2023-04-26T07:20:52.311Z,58.18
2023-04-26T07:22:55.015Z,57.55
2023-04-26T07:24:59.072Z,55.48
2023-04-26T07:27:03.499Z,59.50
2023-04-26T07:29:06.296Z,54.99
2023-04-26T07:31:10.681Z,58.47
2023-04-26T07:33:13.795Z,58.72
2023-04-26T07:35:16.873Z,58.77
2023-04-26T07:37:19.639Z,64.70
2023-04-26T07:39:22.368Z,64.79
2023-04-26T07:41:26.651Z,65.41
2023-04-26T07:43:29.426Z,66.31
2023-04-26T07:45:33.664Z,68.06
2023-04-26T07:47:36.481Z,71.09
2023-04-26T07:49:39.225Z,70.51
2023-04-26T07:51:44.834Z,70.67
2023-04-26T07:53:47.507Z,68.38
2023-04-26T07:55:51.313Z,70.96
2023-04-26T07:57:55.545Z,71.17
2023-04-26T07:59:59.126Z,70.88
2023-04-26T08:02:01.881Z,69.38
2023-04-26T08:04:04.964Z,70.06
2023-04-26T08:06:08.878Z,62.18
2023-04-26T08:08:12.531Z,57.47
2023-04-26T08:10:15.297Z,56.01
2023-04-26T08:12:18.016Z,59.63
2023-04-26T08:14:22.178Z,60.36
2023-04-26T08:16:25.210Z,58.31
2023-04-26T08:18:27.902Z,56.54
2023-04-26T08:20:30.637Z,53.38
2023-04-26T08:22:33.370Z,52.49
2023-04-26T08:24:36.112Z,54.05
2023-04-26T08:26:38.836Z,55.00
2023-04-26T08:28:41.593Z,55.78
2023-04-26T08:30:45.774Z,57.39
2023-04-26T08:32:48.537Z,58.64
2023-04-26T08:34:51.273Z,56.33
2023-04-26T08:36:53.965Z,55.72
2023-04-26T08:38:57.679Z,54.00
2023-04-26T08:41:01.957Z,57.75
2023-04-26T08:43:04.765Z,56.93
2023-04-26T08:45:11.415Z,58.25
2023-04-26T08:47:19.929Z,60.43
2023-04-26T08:49:33.571Z,59.08
2023-04-26T08:51:38.387Z,57.64
2023-04-26T08:53:42.893Z,55.52
2023-04-26T08:55:49.964Z,59.70
2023-04-26T08:57:52.733Z,57.14
2023-04-26T08:59:58.528Z,60.21
2023-04-26T09:02:02.984Z,61.37
2023-04-26T09:04:08.353Z,60.44
2023-04-26T09:06:12.097Z,62.40
2023-04-26T09:08:18.323Z,61.40
2023-04-26T09:10:22.839Z,64.02
2023-04-26T09:12:26.278Z,63.83
2023-04-26T09:14:28.958Z,64.01
2023-04-26T09:16:37.655Z,61.19
2023-04-26T09:18:50.132Z,66.31
2023-04-26T09:21:08.286Z,66.37
2023-04-26T09:23:11.431Z,68.62
2023-04-26T09:25:14.914Z,67.60
2023-04-26T09:27:18.404Z,68.62
2023-04-26T09:29:21.439Z,67.64
2023-04-26T09:31:41.080Z,64.89
2023-04-26T09:33:58.980Z,65.63
2023-04-26T09:36:12.783Z,64.09
2023-04-26T09:38:17.569Z,64.00
2023-04-26T09:40:21.738Z,63.44
2023-04-26T09:42:24.433Z,64.34
2023-04-26T09:44:27.428Z,64.14
2023-04-26T09:46:30.250Z,65.90
2023-04-26T09:48:34.780Z,66.05
2023-04-26T09:50:37.548Z,65.18
2023-04-26T09:52:47.470Z,63.43
2023-04-26T09:54:51.720Z,64.37
2023-04-26T09:57:01.635Z,63.20
2023-04-26T09:59:05.761Z,62.64
2023-04-26T10:01:09.438Z,63.77
2023-04-26T10:03:14.115Z,62.83
2023-04-26T10:05:17.699Z,61.67
2023-04-26T10:07:23.485Z,64.01
2023-04-26T10:09:28.138Z,58.62
2023-04-26T10:11:31.271Z,57.67
2023-04-26T10:13:34.208Z,57.86
2023-04-26T10:15:37.162Z,59.30
2023-04-26T10:17:39.962Z,57.17
2023-04-26T10:19:45.029Z,54.86
2023-04-26T10:21:49.721Z,54.10
2023-04-26T10:23:52.813Z,57.02
2023-04-26T10:25:57.014Z,53.31
2023-04-26T10:27:59.735Z,54.69
2023-04-26T10:30:09.059Z,58.25
2023-04-26T10:32:16.562Z,58.81
2023-04-26T10:34:20.359Z,59.94
2023-04-26T10:36:23.134Z,59.10
2023-04-26T10:38:26.847Z,60.21
2023-04-26T10:40:32.827Z,62.11
2023-04-26T10:42:36.845Z,60.80
2023-04-26T10:44:41.999Z,62.42
2023-04-26T10:46:51.601Z,63.02
2023-04-26T10:48:54.642Z,62.71
2023-04-26T10:51:09.305Z,62.10
2023-04-26T10:53:12.345Z,63.27
2023-04-26T10:55:39.651Z,60.16
2023-04-26T10:57:51.410Z,59.86
2023-04-26T11:00:20.921Z,59.65
2023-04-26T11:02:50.391Z,59.19
2023-04-26T11:04:55.056Z,57.57
2023-04-26T11:06:58.465Z,56.13
2023-04-26T11:09:02.044Z,55.77
2023-04-26T11:11:10.114Z,56.23
2023-04-26T11:13:14.226Z,56.89
2023-04-26T11:15:17.289Z,56.83
2023-04-26T11:17:20.823Z,55.23
2023-04-26T11:19:24.138Z,57.12
2023-04-26T11:21:27.277Z,57.28
2023-04-26T11:23:31.506Z,56.07
2023-04-26T11:25:34.279Z,57.95
2023-04-26T11:27:37.207Z,57.98
2023-04-26T11:29:41.240Z,57.43
2023-04-26T11:31:43.942Z,56.31
2023-04-26T11:33:49.083Z,55.61
2023-04-26T11:35:53.498Z,55.35
2023-04-26T11:37:59.900Z,54.26
2023-04-26T11:40:02.722Z,54.13
2023-04-26T11:42:09.317Z,52.22
2023-04-26T11:44:12.816Z,52.96
2023-04-26T11:46:17.339Z,52.13
2023-04-26T11:48:20.414Z,54.44
2023-04-26T11:50:26.688Z,53.53
2023-04-26T11:52:29.724Z,54.35
2023-04-26T11:54:33.828Z,55.92
2023-04-26T11:56:36.473Z,54.06
2023-04-26T11:58:39.139Z,52.09
2023-04-26T12:01:01.725Z,54.30
2023-04-26T12:03:11.105Z,51.54
2023-04-26T12:05:22.834Z,52.72
2023-04-26T12:07:25.590Z,53.22
2023-04-26T12:09:29.748Z,51.38
2023-04-26T12:11:32.724Z,52.26
2023-04-26T12:13:35.792Z,49.49
2023-04-26T12:15:38.598Z,49.21
2023-04-26T12:17:41.399Z,49.43
2023-04-26T12:19:45.427Z,50.78
2023-04-26T12:21:50.457Z,48.69
2023-04-26T12:23:53.188Z,49.76
2023-04-26T12:25:59.729Z,50.79
2023-04-26T12:28:02.811Z,49.13
2023-04-26T12:30:07.250Z,49.22
2023-04-26T12:32:10.015Z,50.36
2023-04-26T12:34:12.836Z,50.96
2023-04-26T12:36:17.750Z,51.86
2023-04-26T12:38:20.866Z,50.36
2023-04-26T12:40:24.473Z,49.05
2023-04-26T12:42:27.269Z,50.02
2023-04-26T12:44:29.951Z,46.14
2023-04-26T12:46:32.705Z,45.53
2023-04-26T12:48:36.097Z,48.43
2023-04-26T12:50:38.753Z,51.13
2023-04-26T12:52:44.479Z,50.76
2023-04-26T12:54:48.962Z,50.32
2023-04-26T12:56:52.038Z,51.05
2023-04-26T12:58:55.113Z,50.16
2023-04-26T13:00:57.993Z,52.11
2023-04-26T13:03:00.805Z,52.87
2023-04-26T13:05:05.150Z,51.70
2023-04-26T13:07:08.529Z,53.09
2023-04-26T13:09:13.926Z,52.59
2023-04-26T13:11:16.872Z,51.71
2023-04-26T13:13:20.553Z,51.99
2023-04-26T13:15:26.841Z,52.31
2023-04-26T13:17:29.642Z,52.35
2023-04-26T13:19:32.307Z,51.80
2023-04-26T13:21:35.040Z,51.67
2023-04-26T13:23:37.684Z,50.49
2023-04-26T13:25:42.113Z,51.59
2023-04-26T13:27:44.813Z,50.92
2023-04-26T13:29:47.474Z,51.11
2023-04-26T13:31:50.407Z,53.30
2023-04-26T13:33:53.241Z,52.62
2023-04-26T13:35:56.031Z,53.60
2023-04-26T13:37:58.701Z,53.02
2023-04-26T13:40:01.865Z,52.57
2023-04-26T13:42:06.333Z,52.68
2023-04-26T13:44:09.060Z,51.64
2023-04-26T13:46:11.779Z,51.21
2023-04-26T13:48:14.799Z,52.00
2023-04-26T13:50:17.766Z,51.78
2023-04-26T13:52:20.579Z,50.85
2023-04-26T13:54:24.659Z,51.18
2023-04-26T13:56:27.482Z,52.41
2023-04-26T13:58:32.025Z,50.33
2023-04-26T14:00:34.855Z,51.64
2023-04-26T14:02:41.470Z,52.19
2023-04-26T14:04:44.538Z,52.51
2023-04-26T14:06:47.340Z,52.13
2023-04-26T14:08:50.092Z,51.57
2023-04-26T14:10:53.861Z,51.68
2023-04-26T14:12:58.486Z,51.63
2023-04-26T14:15:04.474Z,51.17
2023-04-26T14:17:07.304Z,51.45
2023-04-26T14:19:10.041Z,52.04
2023-04-26T14:21:12.862Z,51.72
2023-04-26T14:23:15.551Z,50.27
2023-04-26T14:25:18.930Z,50.95
2023-04-26T14:27:21.929Z,51.24
2023-04-26T14:29:24.685Z,51.39
2023-04-26T14:31:30.391Z,52.67
2023-04-26T14:33:33.242Z,51.84
2023-04-26T14:35:36.032Z,51.44
2023-04-26T14:37:39.208Z,50.91
2023-04-26T14:39:42.062Z,52.47
2023-04-26T14:41:44.789Z,51.70
2023-04-26T14:43:47.874Z,50.97
2023-04-26T14:45:50.942Z,49.41
2023-04-26T14:47:55.021Z,48.49
2023-04-26T14:49:58.176Z,50.37
2023-04-26T14:52:01.085Z,50.22
2023-04-26T14:54:03.930Z,51.70
2023-04-26T14:56:07.760Z,51.77
2023-04-26T14:58:10.546Z,51.72
2023-04-26T15:00:16.806Z,52.29
2023-04-26T15:02:19.746Z,51.77
2023-04-26T15:04:24.023Z,50.79
2023-04-26T15:06:27.372Z,51.63
2023-04-26T15:08:30.114Z,51.22
2023-04-26T15:10:33.044Z,51.70
2023-04-26T15:12:36.064Z,52.13
2023-04-26T15:14:38.793Z,51.44
2023-04-26T15:16:41.762Z,51.55
2023-04-26T15:18:44.558Z,52.04
2023-04-26T15:20:48.635Z,52.86
2023-04-26T15:22:51.535Z,53.78
2023-04-26T15:24:54.366Z,52.87
2023-04-26T15:26:57.120Z,53.26
2023-04-26T15:28:59.806Z,52.90
2023-04-26T15:31:03.273Z,52.87
2023-04-26T15:33:06.697Z,54.29
2023-04-26T15:35:13.851Z,54.42
2023-04-26T15:37:17.999Z,54.65
2023-04-26T15:39:20.796Z,54.60
2023-04-26T15:41:23.954Z,55.14
2023-04-26T15:43:26.802Z,55.74
2023-04-26T15:45:29.735Z,56.15
2023-04-26T15:47:32.469Z,55.74
2023-04-26T15:49:35.155Z,55.61
2023-04-26T15:51:37.821Z,55.74
2023-04-26T15:53:44.067Z,56.79
2023-04-26T15:55:47.087Z,55.82
2023-04-26T15:57:49.856Z,55.90
2023-04-26T15:59:52.611Z,56.54
2023-04-26T16:01:55.351Z,57.16
2023-04-26T16:03:58.581Z,57.45
2023-04-26T16:06:01.470Z,57.16
2023-04-26T16:08:05.748Z,57.08
2023-04-26T16:10:11.740Z,57.33
2023-04-26T16:12:14.456Z,57.45
2023-04-26T16:14:17.316Z,57.36
2023-04-26T16:16:20.604Z,57.00
2023-04-26T16:18:23.787Z,57.56
2023-04-26T16:20:26.749Z,57.60
2023-04-26T16:22:29.686Z,57.84
2023-04-26T16:24:32.386Z,57.31
2023-04-26T16:26:36.530Z,58.44
2023-04-26T16:28:39.269Z,57.66
2023-04-26T16:30:42.248Z,56.73
2023-04-26T16:32:45.240Z,57.31
2023-04-26T16:34:48.299Z,57.64
2023-04-26T16:36:51.026Z,57.18
2023-04-26T16:38:54.203Z,58.04
2023-04-26T16:40:58.637Z,57.31
2023-04-26T16:43:02.809Z,57.46
2023-04-26T16:45:06.264Z,58.71
2023-04-26T16:47:09.025Z,58.25
2023-04-26T16:49:11.970Z,58.13
2023-04-26T16:51:14.697Z,58.37
2023-04-26T16:53:18.020Z,58.06
2023-04-26T16:55:20.960Z,58.14
2023-04-26T16:57:23.775Z,58.24
2023-04-26T16:59:28.404Z,58.93
2023-04-26T17:01:31.508Z,58.19
2023-04-26T17:03:34.404Z,58.16
2023-04-26T17:05:41.018Z,58.33
2023-04-26T17:07:43.711Z,58.93
2023-04-26T17:09:46.614Z,58.68
2023-04-26T17:11:49.966Z,58.97
2023-04-26T17:13:52.845Z,59.16
2023-04-26T17:15:57.180Z,58.94
2023-04-26T17:18:00.053Z,58.90
2023-04-26T17:20:06.389Z,59.29
2023-04-26T17:22:09.083Z,59.10
2023-04-26T17:24:11.789Z,59.22
2023-04-26T17:26:14.469Z,59.00
2023-04-26T17:28:17.187Z,59.25
2023-04-26T17:30:20.292Z,60.03
2023-04-26T17:32:24.701Z,59.33
2023-04-26T17:34:27.680Z,60.78
2023-04-26T17:36:30.373Z,61.21
2023-04-26T17:38:33.041Z,61.12
2023-04-26T17:40:35.874Z,60.06
2023-04-26T17:42:38.511Z,59.91
2023-04-26T17:44:41.270Z,59.93
2023-04-26T17:46:43.933Z,59.56
2023-04-26T17:48:48.038Z,59.72
2023-04-26T17:50:52.790Z,59.42
2023-04-26T17:52:55.565Z,60.66
2023-04-26T17:54:58.296Z,59.91
2023-04-26T17:57:01.030Z,60.27
2023-04-26T17:59:03.915Z,60.60
2023-04-26T18:01:06.687Z,61.62
2023-04-26T18:03:09.669Z,60.48
2023-04-26T18:05:13.934Z,61.82
2023-04-26T18:07:16.705Z,61.67
2023-04-26T18:09:19.391Z,61.78
2023-04-26T18:11:22.537Z,61.45
2023-04-26T18:13:25.338Z,61.20
2023-04-26T18:15:28.105Z,61.54
2023-04-26T18:17:30.941Z,61.72
2023-04-26T18:19:33.688Z,61.99
2023-04-26T18:21:37.757Z,61.30
2023-04-26T18:23:41.547Z,61.93
2023-04-26T18:25:45.338Z,63.10
2023-04-26T18:27:48.052Z,61.96
2023-04-26T18:29:50.809Z,64.28
2023-04-26T18:31:54.028Z,63.60
2023-04-26T18:33:56.915Z,65.55
2023-04-26T18:35:59.678Z,65.46
2023-04-26T18:38:04.017Z,66.37
2023-04-26T18:40:08.216Z,64.97
2023-04-26T18:42:11.002Z,64.04
2023-04-26T18:44:14.345Z,66.58
2023-04-26T18:46:17.305Z,66.68
2023-04-26T18:48:20.140Z,69.10
2023-04-26T18:50:22.822Z,65.99
2023-04-26T18:52:25.556Z,64.40
2023-04-26T18:54:30.987Z,65.79
2023-04-26T18:56:33.748Z,64.59
2023-04-26T18:58:36.738Z,68.44
2023-04-26T19:00:39.447Z,70.56
2023-04-26T19:02:42.193Z,70.48
2023-04-26T19:04:46.896Z,71.24
2023-04-26T19:06:50.919Z,68.38
2023-04-26T19:08:53.673Z,70.25
2023-04-26T19:10:57.821Z,68.42
2023-04-26T19:13:00.660Z,66.97
2023-04-26T19:15:03.609Z,66.66
2023-04-26T19:17:06.472Z,68.81
2023-04-26T19:19:11.038Z,68.96
2023-04-26T19:21:13.799Z,67.11
2023-04-26T19:23:16.480Z,65.02
2023-04-26T19:25:22.981Z,67.99
2023-04-26T19:27:27.175Z,66.84
2023-04-26T19:29:30.135Z,67.64
2023-04-26T19:31:32.849Z,65.92
2023-04-26T19:33:37.016Z,66.06
2023-04-26T19:35:44.997Z,64.13
2023-04-26T19:37:47.808Z,66.74
2023-04-26T19:39:50.965Z,66.98
2023-04-26T19:41:56.256Z,66.25
2023-04-26T19:44:00.495Z,66.32
2023-04-26T19:46:03.297Z,66.66
2023-04-26T19:48:06.358Z,64.13
2023-04-26T19:50:10.051Z,66.94
2023-04-26T19:52:13.415Z,66.58
2023-04-26T19:54:18.075Z,66.99
2023-04-26T19:56:21.223Z,66.69
2023-04-26T19:58:23.874Z,65.99
2023-04-26T20:00:30.292Z,69.18
2023-04-26T20:02:33.336Z,67.48
2023-04-26T20:04:36.127Z,67.38
2023-04-26T20:06:38.808Z,68.14
2023-04-26T20:08:41.648Z,66.33
2023-04-26T20:10:44.396Z,67.82
2023-04-26T20:12:47.232Z,65.89
2023-04-26T20:14:50.515Z,63.69
2023-04-26T20:16:54.719Z,65.88
2023-04-26T20:18:57.746Z,68.47
2023-04-26T20:21:00.552Z,69.28
2023-04-26T20:23:03.588Z,67.75
2023-04-26T20:25:07.735Z,70.60
2023-04-26T20:27:10.595Z,67.52
2023-04-26T20:29:13.344Z,71.34
2023-04-26T20:31:16.134Z,72.55
2023-04-26T20:33:20.251Z,72.56
2023-04-26T20:35:22.975Z,73.64
2023-04-26T20:37:25.754Z,68.50
2023-04-26T20:39:29.449Z,71.61
2023-04-26T20:41:32.165Z,73.49
2023-04-26T20:43:35.270Z,74.39
2023-04-26T20:45:38.018Z,73.54
2023-04-26T20:47:40.906Z,71.62
2023-04-26T20:49:44.984Z,71.91
2023-04-26T20:51:47.766Z,73.70
2023-04-26T20:53:52.090Z,74.01
2023-04-26T20:55:58.201Z,74.17
2023-04-26T20:58:00.977Z,74.51
2023-04-26T21:00:04.032Z,74.33
2023-04-26T21:02:07.764Z,73.74
2023-04-26T21:04:10.681Z,73.90
2023-04-26T21:06:15.319Z,74.57
2023-04-26T21:08:18.186Z,74.45
2023-04-26T21:10:21.777Z,75.40
2023-04-26T21:12:24.734Z,75.06
2023-04-26T21:14:27.815Z,73.70
2023-04-26T21:16:30.710Z,75.97
2023-04-26T21:18:33.630Z,75.55
2023-04-26T21:20:36.414Z,76.34
2023-04-26T21:22:40.473Z,76.49
2023-04-26T21:24:43.211Z,76.58
2023-04-26T21:26:46.117Z,74.95
2023-04-26T21:28:48.764Z,76.30
2023-04-26T21:30:51.653Z,77.39
2023-04-26T21:32:54.397Z,76.47
2023-04-26T21:34:57.086Z,76.79
2023-04-26T21:36:59.750Z,77.43
2023-04-26T21:39:10.566Z,77.97
2023-04-26T21:41:13.637Z,77.68
2023-04-26T21:43:16.516Z,73.30
2023-04-26T21:45:19.325Z,75.92
2023-04-26T21:47:22.096Z,76.39
2023-04-26T21:49:24.876Z,70.30
2023-04-26T21:51:27.833Z,75.75
2023-04-26T21:53:30.569Z,74.52
2023-04-26T21:55:34.603Z,72.47
2023-04-26T21:57:37.530Z,75.33
2023-04-26T21:59:42.177Z,77.88
2023-04-26T22:01:45.027Z,79.75
2023-04-26T22:03:47.865Z,75.22
2023-04-26T22:05:50.615Z,75.10
2023-04-26T22:07:53.384Z,78.69
2023-04-26T22:09:56.310Z,75.29
2023-04-26T22:12:00.466Z,77.00
2023-04-26T22:14:03.194Z,79.71
2023-04-26T22:16:06.795Z,76.60
2023-04-26T22:18:09.474Z,76.95
2023-04-26T22:20:13.535Z,77.47
2023-04-26T22:22:16.391Z,76.67
2023-04-26T22:24:19.370Z,77.87
2023-04-26T22:26:22.322Z,77.23
2023-04-26T22:28:26.684Z,80.22
2023-04-26T22:30:29.419Z,81.76
2023-04-26T22:32:32.203Z,80.64
2023-04-26T22:34:34.977Z,81.89
2023-04-26T22:36:37.715Z,80.12
2023-04-26T22:38:40.800Z,79.95
2023-04-26T22:40:43.607Z,78.80
2023-04-26T22:42:46.509Z,78.80
2023-04-26T22:44:51.451Z,80.41
2023-04-26T22:46:55.276Z,82.18
2023-04-26T22:48:58.205Z,80.08
2023-04-26T22:51:00.975Z,77.18
2023-04-26T22:53:03.722Z,80.84
2023-04-26T22:55:07.390Z,81.29
2023-04-26T22:57:10.045Z,81.85
2023-04-26T22:59:13.267Z,84.05
2023-04-26T23:01:17.658Z,83.46
2023-04-26T23:03:20.508Z,82.90
2023-04-26T23:05:23.308Z,85.41
2023-04-26T23:07:26.140Z,84.28
2023-04-26T23:09:28.804Z,83.96
2023-04-26T23:11:31.695Z,83.84
2023-04-26T23:13:36.138Z,85.19
2023-04-26T23:15:38.806Z,85.19
2023-04-26T23:17:42.877Z,83.95
2023-04-26T23:19:46.154Z,82.48
2023-04-26T23:21:48.882Z,82.26
2023-04-26T23:23:51.615Z,84.66
2023-04-26T23:25:54.438Z,88.20
2023-04-26T23:27:57.228Z,86.06
2023-04-26T23:30:00.195Z,86.04
2023-04-26T23:32:03.026Z,84.65
2023-04-26T23:34:07.036Z,84.63
2023-04-26T23:36:10.586Z,85.30
2023-04-26T23:38:13.320Z,86.01
2023-04-26T23:40:16.091Z,85.26
2023-04-26T23:42:18.820Z,86.11
2023-04-26T23:44:21.457Z,85.94
2023-04-26T23:46:24.113Z,85.22
2023-04-26T23:48:26.959Z,89.32
2023-04-26T23:50:31.076Z,85.94
2023-04-26T23:52:33.841Z,84.93
2023-04-26T23:54:36.497Z,85.84
2023-04-26T23:56:39.176Z,87.40
2023-04-26T23:58:41.890Z,86.57
